Time;durP1;ratioP1;P1;durP2;ratioP2;P2;SDS_P1;SDS_P2;PMS_P1;PMS_P2;Temp;Humidity;BMP_temperature;BMP_pressure;BME280_temperature;BME280_humidity;BME280_pressure;Samples;Min_cycle;Max_cycle;Signal;HPM_P1;HPM_P2
2023/09/09 00:02:17;;;;;;;14.13;11.18;;;;;;;17.07;100.00;63767.97;4800496;29;20605;-77
2023/09/09 00:04:44;;;;;;;12.30;11.00;;;;;;;17.11;100.00;63769.06;4816224;29;20230;-76
2023/09/09 00:07:11;;;;;;;14.52;10.95;;;;;;;17.09;100.00;63764.38;4808211;29;20259;-77
2023/09/09 00:09:38;;;;;;;11.75;9.95;;;;;;;17.05;100.00;63760.75;4809844;29;20241;-77
2023/09/09 00:12:06;;;;;;;12.98;11.50;;;;;;;16.96;100.00;63753.44;4803931;29;20292;-75
2023/09/09 00:14:33;;;;;;;11.85;10.65;;;;;;;16.93;100.00;63745.16;4830618;29;20213;-75
2023/09/09 00:17:03;;;;;;;13.15;10.73;;;;;;;16.91;100.00;63750.81;4814243;29;20202;-76
2023/09/09 00:19:34;;;;;;;13.90;12.07;;;;;;;16.84;100.00;63744.03;4814781;29;20216;-76
2023/09/09 00:22:01;;;;;;;12.85;11.65;;;;;;;16.90;100.00;63747.19;4811190;29;20236;-76
2023/09/09 00:24:28;;;;;;;14.00;10.65;;;;;;;16.82;100.00;63738.88;4806692;29;20277;-76
2023/09/09 00:26:55;;;;;;;12.40;10.13;;;;;;;16.83;100.00;63739.91;4806379;29;20241;-76
2023/09/09 00:29:22;;;;;;;12.38;10.98;;;;;;;16.81;100.00;63740.38;4811742;29;20431;-76
2023/09/09 00:31:49;;;;;;;12.15;9.52;;;;;;;16.77;100.00;63733.66;4812795;29;20209;-77
2023/09/09 00:34:18;;;;;;;12.43;10.77;;;;;;;16.74;100.00;63733.13;4816338;29;20222;-75
2023/09/09 00:36:45;;;;;;;11.77;10.60;;;;;;;16.71;100.00;63725.38;4813757;29;20213;-75
2023/09/09 00:39:12;;;;;;;12.20;11.02;;;;;;;16.61;100.00;63717.00;4819007;29;20210;-76
2023/09/09 00:41:38;;;;;;;13.52;10.70;;;;;;;16.62;100.00;63721.13;4819052;29;20530;-76
2023/09/09 00:44:08;;;;;;;14.95;11.77;;;;;;;16.57;100.00;63715.94;4811952;29;20495;-76
2023/09/09 00:46:35;;;;;;;12.82;11.48;;;;;;;16.55;100.00;63713.34;4814458;29;20297;-75
2023/09/09 00:49:03;;;;;;;13.57;10.80;;;;;;;16.52;100.00;63707.66;4817327;29;20284;-76
2023/09/09 00:51:31;;;;;;;14.15;11.70;;;;;;;16.41;100.00;63699.25;4809423;29;20229;-76
2023/09/09 00:53:58;;;;;;;15.43;11.98;;;;;;;16.44;100.00;63697.25;4815387;29;20290;-75
2023/09/09 00:56:25;;;;;;;13.25;11.73;;;;;;;16.31;100.00;63683.72;4823335;29;20304;-78
2023/09/09 00:58:53;;;;;;;16.40;12.07;;;;;;;16.23;100.00;63680.56;4817192;29;20222;-75
2023/09/09 01:01:20;;;;;;;15.02;11.27;;;;;;;16.20;100.00;63675.38;4818606;29;20237;-75
2023/09/09 01:03:51;;;;;;;12.85;11.68;;;;;;;16.19;100.00;63671.78;4815821;29;20241;-74
2023/09/09 01:06:19;;;;;;;13.20;11.55;;;;;;;16.09;100.00;63666.00;4816068;29;20305;-75
2023/09/09 01:08:47;;;;;;;12.45;11.23;;;;;;;16.05;100.00;63657.22;4818576;29;20269;-76
2023/09/09 01:11:15;;;;;;;13.50;11.50;;;;;;;16.01;100.00;63658.19;4817927;29;20283;-78
2023/09/09 01:13:42;;;;;;;12.95;11.75;;;;;;;15.97;100.00;63650.94;4810397;29;20594;-77
2023/09/09 01:16:09;;;;;;;14.32;11.82;;;;;;;15.98;100.00;63649.94;4807316;29;20249;-76
2023/09/09 01:18:36;;;;;;;14.80;11.25;;;;;;;16.02;100.00;63654.09;4818006;29;20218;-75
2023/09/09 01:21:05;;;;;;;12.95;10.63;;;;;;;15.89;100.00;63645.19;4818591;29;20230;-76
2023/09/09 01:23:34;;;;;;;11.65;10.57;;;;;;;15.92;100.00;63648.31;4816550;29;20218;-77
2023/09/09 01:26:01;;;;;;;12.95;10.98;;;;;;;15.94;100.00;63648.34;4827085;29;20251;-78
2023/09/09 01:28:28;;;;;;;13.80;12.13;;;;;;;15.91;100.00;63647.78;4816292;29;20210;-76
2023/09/09 01:30:56;;;;;;;13.73;12.30;;;;;;;15.95;100.00;63648.84;4818205;29;20454;-77
2023/09/09 01:33:23;;;;;;;13.40;12.00;;;;;;;15.87;100.00;63643.63;4806509;29;20244;-75
2023/09/09 01:35:50;;;;;;;13.20;11.68;;;;;;;15.92;100.00;63648.31;4824768;29;20253;-77
2023/09/09 01:38:17;;;;;;;13.57;11.68;;;;;;;15.85;100.00;63635.88;4808421;29;20273;-76
2023/09/09 01:40:45;;;;;;;13.60;12.30;;;;;;;15.83;100.00;63631.78;4800720;30;20230;-76
2023/09/09 01:43:12;;;;;;;16.60;13.30;;;;;;;15.82;100.00;63635.88;4809807;29;20226;-77
2023/09/09 01:45:39;;;;;;;15.95;13.93;;;;;;;15.81;100.00;63639.97;4817246;29;20247;-75
2023/09/09 01:48:07;;;;;;;16.75;13.38;;;;;;;15.85;100.00;63639.00;4807587;29;20214;-75
2023/09/09 01:50:33;;;;;;;19.17;13.88;;;;;;;15.81;100.00;63629.16;4817390;29;20248;-75
2023/09/09 01:53:01;;;;;;;17.23;14.40;;;;;;;15.84;100.00;63634.88;4813831;29;20248;-76
2023/09/09 01:55:28;;;;;;;15.10;13.50;;;;;;;15.78;100.00;63629.13;4814057;29;20258;-77
2023/09/09 01:57:57;;;;;;;15.00;13.48;;;;;;;15.79;100.00;63635.31;4817037;29;20218;-76
2023/09/09 02:00:24;;;;;;;17.63;13.98;;;;;;;15.79;100.00;63635.31;4823829;29;20234;-75
2023/09/09 02:02:51;;;;;;;16.50;13.80;;;;;;;15.82;100.00;63632.78;4813962;29;20211;-76
2023/09/09 02:05:18;;;;;;;14.10;12.65;;;;;;;15.84;100.00;63637.94;4817405;29;20296;-75
2023/09/09 02:07:45;;;;;;;14.15;12.65;;;;;;;15.87;100.00;63640.53;4813842;29;20252;-76
2023/09/09 02:10:11;;;;;;;13.55;10.05;;;;;;;15.86;100.00;63642.59;4806218;29;20365;-76
2023/09/09 02:12:38;;;;;;;13.52;10.88;;;;;;;15.81;100.00;63637.38;4815011;29;20308;-76
2023/09/09 02:15:08;;;;;;;14.27;12.05;;;;;;;15.86;100.00;63642.59;4816945;29;20242;-76
2023/09/09 02:17:36;;;;;;;14.95;12.02;;;;;;;15.72;100.00;63628.03;4817175;29;20213;-75
2023/09/09 02:20:05;;;;;;;12.57;11.30;;;;;;;15.70;100.00;63620.81;4812944;29;20230;-77
2023/09/09 02:22:31;;;;;;;15.95;11.68;;;;;;;15.62;100.00;63609.94;4817271;29;20210;-76
2023/09/09 02:24:58;;;;;;;10.93;9.82;;;;;;;15.59;100.00;63614.00;4818063;29;20461;-76
2023/09/09 02:27:25;;;;;;;10.57;9.23;;;;;;;15.61;100.00;63613.50;4804699;29;20230;-75
2023/09/09 02:29:53;;;;;;;8.60;7.80;;;;;;;15.62;100.00;63617.63;4813714;29;20301;-75
2023/09/09 02:32:21;;;;;;;13.13;8.63;;;;;;;15.65;100.00;63615.59;4817464;29;20333;-76
2023/09/09 02:34:48;;;;;;;7.57;6.80;;;;;;;15.62;100.00;63617.09;4812770;29;20235;-76
2023/09/09 02:37:17;;;;;;;7.50;6.78;;;;;;;15.57;100.00;63612.44;4803597;29;20210;-76
2023/09/09 02:39:45;;;;;;;9.65;6.25;;;;;;;15.59;100.00;63609.38;4817856;29;20233;-75
2023/09/09 02:42:14;;;;;;;6.10;5.68;;;;;;;15.55;100.00;63604.72;4819975;29;20213;-76
2023/09/09 02:44:41;;;;;;;6.72;6.22;;;;;;;15.57;100.00;63606.78;4815892;29;20267;-78
2023/09/09 02:47:09;;;;;;;6.30;5.63;;;;;;;15.47;100.00;63596.91;4812248;29;20228;-76
2023/09/09 02:49:38;;;;;;;8.07;5.22;;;;;;;15.51;100.00;63608.25;4811724;29;20211;-77
2023/09/09 02:52:06;;;;;;;7.38;5.90;;;;;;;15.47;100.00;63598.94;4799366;30;20271;-75
2023/09/09 02:54:34;;;;;;;6.82;6.20;;;;;;;15.41;100.00;63595.28;4815154;29;20265;-76
2023/09/09 02:57:01;;;;;;;9.32;8.43;;;;;;;15.41;100.00;63590.16;4816660;29;20211;-75
2023/09/09 02:59:28;;;;;;;9.38;8.55;;;;;;;15.37;100.00;63591.63;4816305;29;20225;-75
2023/09/09 03:01:56;;;;;;;8.95;8.02;;;;;;;15.33;100.00;63584.91;4816499;29;20214;-76
2023/09/09 03:04:22;;;;;;;7.47;6.78;;;;;;;15.27;100.00;63575.59;4812409;29;20209;-76
2023/09/09 03:06:51;;;;;;;14.00;8.13;;;;;;;15.24;100.00;63577.59;4817245;29;20680;-76
2023/09/09 03:09:18;;;;;;;7.75;6.30;;;;;;;15.22;100.00;63570.38;4817041;29;20210;-77
2023/09/09 03:11:45;;;;;;;6.20;5.70;;;;;;;15.16;100.00;63569.28;4809367;29;20206;-77
2023/09/09 03:14:12;;;;;;;6.97;5.65;;;;;;;15.13;100.00;63564.13;4815207;29;20341;-76
2023/09/09 03:16:39;;;;;;;5.32;4.80;;;;;;;15.07;100.00;63555.84;4817304;29;20611;-77
2023/09/09 03:19:06;;;;;;;5.65;5.22;;;;;;;15.02;100.00;63552.69;4818441;29;20288;-76
2023/09/09 03:21:33;;;;;;;7.03;5.63;;;;;;;14.97;100.00;63547.50;4820017;29;20226;-76
2023/09/09 03:24:02;;;;;;;5.30;4.95;;;;;;;14.92;100.00;63540.25;4814965;29;20218;-76
2023/09/09 03:26:31;;;;;;;4.60;4.25;;;;;;;14.88;100.00;63538.13;4799333;29;20293;-76
2023/09/09 03:28:58;;;;;;;4.80;4.40;;;;;;;14.86;100.00;63533.50;4818758;29;20256;-75
2023/09/09 03:31:25;;;;;;;6.00;4.65;;;;;;;14.81;100.00;63536.00;4815917;29;20226;-76
2023/09/09 03:33:52;;;;;;;4.80;4.40;;;;;;;14.82;100.00;63531.91;4818967;29;20429;-76
2023/09/09 03:36:19;;;;;;;5.97;4.20;;;;;;;14.73;100.00;63525.66;4817108;29;20230;-76
2023/09/09 03:38:46;;;;;;;4.55;4.15;;;;;;;14.68;100.00;63520.44;4815253;29;20222;-76
2023/09/09 03:41:14;;;;;;;6.80;4.45;;;;;;;14.63;100.00;63519.88;4814645;29;20272;-76
2023/09/09 03:43:41;;;;;;;8.18;4.38;;;;;;;14.62;100.00;63513.69;4811611;29;20207;-76
2023/09/09 03:46:08;;;;;;;4.43;4.03;;;;;;;14.67;100.00;63518.88;4798923;30;20235;-76
2023/09/09 03:48:35;;;;;;;4.22;3.33;;;;;;;14.62;100.00;63508.56;4804363;29;20345;-76
2023/09/09 03:51:03;;;;;;;4.25;3.95;;;;;;;14.62;100.00;63511.13;4816920;29;20317;-77
2023/09/09 03:53:30;;;;;;;3.65;3.38;;;;;;;14.59;100.00;63508.53;4816280;29;20233;-76
2023/09/09 03:56:01;;;;;;;4.68;4.28;;;;;;;14.63;100.00;63512.16;4819390;29;20294;-76
2023/09/09 03:58:30;;;;;;;3.47;3.22;;;;;;;14.64;100.00;63508.06;4819980;29;20213;-75
2023/09/09 04:01:05;;;;;;;4.75;3.88;;;;;;;14.61;100.00;63505.50;4816458;29;20233;-76
2023/09/09 04:03:34;;;;;;;6.13;3.67;;;;;;;14.58;100.00;63504.91;4818936;29;20262;-76
2023/09/09 04:06:03;;;;;;;3.53;3.33;;;;;;;14.57;100.00;63500.81;4815126;29;20252;-77
2023/09/09 04:08:31;;;;;;;4.93;3.67;;;;;;;14.56;100.00;63502.34;4809598;29;20214;-76
2023/09/09 04:10:57;;;;;;;4.15;3.28;;;;;;;14.60;100.00;63511.63;4814890;29;20229;-76
2023/09/09 04:13:24;;;;;;;6.60;4.13;;;;;;;14.60;100.00;63507.00;4815330;29;20482;-76
2023/09/09 04:15:54;;;;;;;4.13;3.80;;;;;;;14.60;100.00;63509.06;4811289;29;20271;-76
2023/09/09 04:18:21;;;;;;;3.80;3.40;;;;;;;14.62;100.00;63506.53;4816039;29;20266;-75
2023/09/09 04:20:48;;;;;;;4.28;3.97;;;;;;;14.63;100.00;63512.69;4814947;29;20658;-76
2023/09/09 04:23:15;;;;;;;4.55;4.15;;;;;;;14.69;100.00;63518.41;4822611;29;20251;-76
2023/09/09 04:25:44;;;;;;;6.18;4.57;;;;;;;14.73;100.00;63523.09;4811371;29;20462;-77
2023/09/09 04:28:11;;;;;;;7.13;6.53;;;;;;;14.83;100.00;63525.25;4801077;29;20214;-75
2023/09/09 04:30:39;;;;;;;6.85;6.10;;;;;;;14.92;100.00;63537.69;4799935;29;20246;-76
2023/09/09 04:33:11;;;;;;;8.00;7.20;;;;;;;14.99;100.00;63547.00;4812881;29;20252;-76
2023/09/09 04:35:38;;;;;;;7.57;6.80;;;;;;;15.06;100.00;63554.78;4803096;29;20576;-76
2023/09/09 04:38:05;;;;;;;8.00;7.10;;;;;;;15.10;100.00;63557.91;4813463;29;20258;-76
2023/09/09 04:40:32;;;;;;;7.70;7.03;;;;;;;15.22;100.00;63570.38;4825033;29;20419;-77
2023/09/09 04:42:59;;;;;;;7.20;6.38;;;;;;;15.31;100.00;63582.28;4807878;29;20518;-76
2023/09/09 04:45:26;;;;;;;7.40;5.93;;;;;;;15.36;100.00;63588.00;4812123;29;20270;-76
2023/09/09 04:47:52;;;;;;;5.35;4.93;;;;;;;15.44;100.00;63591.22;4804002;29;20399;-76
2023/09/09 04:50:21;;;;;;;5.72;4.80;;;;;;;15.53;100.00;63608.28;4797378;29;20238;-77
2023/09/09 04:52:48;;;;;;;5.45;4.50;;;;;;;15.61;100.00;63610.94;4812831;29;20214;-77
2023/09/09 04:55:15;;;;;;;5.32;4.88;;;;;;;15.73;100.00;63626.50;4811723;29;20294;-74
2023/09/09 04:57:43;;;;;;;6.25;4.93;;;;;;;15.77;100.00;63630.66;4814826;29;20214;-75
2023/09/09 05:00:11;;;;;;;9.52;7.35;;;;;;;15.84;100.00;63632.28;4813734;29;20231;-76
2023/09/09 05:02:39;;;;;;;9.48;8.60;;;;;;;15.99;100.00;63653.03;4821892;29;20221;-76
2023/09/09 05:05:07;;;;;;;11.82;9.55;;;;;;;16.01;100.00;63650.47;4813801;29;20230;-75
2023/09/09 05:07:37;;;;;;;13.70;12.18;;;;;;;15.97;100.00;63650.94;4805962;29;20234;-74
2023/09/09 05:10:05;;;;;;;15.63;13.02;;;;;;;15.98;100.00;63649.41;4804720;29;20305;-76
2023/09/09 05:12:32;;;;;;;17.60;13.38;;;;;;;16.03;100.00;63660.25;4812629;29;20245;-76
2023/09/09 05:14:59;;;;;;;16.48;13.15;;;;;;;16.11;100.00;63668.59;4815348;29;20284;-76
2023/09/09 05:17:26;;;;;;;14.88;12.75;;;;;;;15.99;100.00;63653.03;4807989;29;20233;-76
2023/09/09 05:19:54;;;;;;;19.23;13.40;;;;;;;16.21;100.00;63673.31;4802689;29;20222;-76
2023/09/09 05:22:21;;;;;;;14.68;12.32;;;;;;;16.35;100.00;63687.38;4807697;29;20205;-76
2023/09/09 05:24:49;;;;;;;14.73;13.13;;;;;;;16.38;100.00;63690.47;4814174;29;20652;-77
2023/09/09 05:27:16;;;;;;;14.88;12.45;;;;;;;16.34;100.00;63686.34;4819770;29;20228;-76
2023/09/09 05:29:44;;;;;;;27.15;13.90;;;;;;;16.45;100.00;63698.28;4809563;29;20550;-75
2023/09/09 05:32:11;;;;;;;16.20;13.07;;;;;;;16.60;100.00;63715.97;4814958;29;20210;-75
2023/09/09 05:34:38;;;;;;;17.45;12.90;;;;;;;16.70;100.00;63723.81;4806265;29;20237;-75
2023/09/09 05:37:05;;;;;;;16.27;12.82;;;;;;;16.75;100.00;63729.53;4817858;29;20448;-77
2023/09/09 05:39:32;;;;;;;14.95;13.00;;;;;;;16.94;100.00;63749.31;4817417;29;20281;-77
2023/09/09 05:42:00;;;;;;;16.65;12.65;;;;;;;17.08;100.00;63771.06;4820150;29;20205;-76
2023/09/09 05:44:27;;;;;;;18.52;12.52;;;;;;;17.13;100.00;63766.00;4807787;29;20222;-75
2023/09/09 05:46:54;;;;;;;14.48;11.45;;;;;;;17.27;100.00;63783.66;4812075;29;20233;-76
2023/09/09 05:49:22;;;;;;;14.85;11.15;;;;;;;17.40;100.00;63796.13;4814541;29;20551;-76
2023/09/09 05:51:49;;;;;;;14.20;11.57;;;;;;;17.57;100.00;63811.28;4821182;29;20221;-76
2023/09/09 05:54:16;;;;;;;14.63;12.32;;;;;;;17.53;100.00;63807.66;4816159;29;20240;-75
2023/09/09 05:56:43;;;;;;;14.68;12.55;;;;;;;17.61;100.00;63818.03;4817137;29;20435;-76
2023/09/09 05:59:11;;;;;;;15.88;12.18;;;;;;;17.64;100.00;63823.72;4813298;29;20262;-75
2023/09/09 06:01:38;;;;;;;13.77;12.38;;;;;;;17.59;100.00;63819.03;4817187;29;20296;-76
2023/09/09 06:04:05;;;;;;;14.70;12.18;;;;;;;17.50;100.00;63809.66;4807464;29;20226;-76
2023/09/09 06:06:32;;;;;;;20.15;13.85;;;;;;;17.41;100.00;63797.19;4815074;29;20241;-76
2023/09/09 06:08:59;;;;;;;16.30;12.60;;;;;;;17.58;100.00;63815.44;4817719;29;20213;-75
2023/09/09 06:11:26;;;;;;;14.00;12.27;;;;;;;17.63;100.00;63818.06;4817703;29;20533;-77
2023/09/09 06:13:53;;;;;;;12.80;11.10;;;;;;;17.75;100.00;63835.72;4813285;29;20240;-77
2023/09/09 06:16:21;;;;;;;23.83;11.98;;;;;;;17.77;100.00;63837.78;4804308;29;20293;-75
2023/09/09 06:18:49;;;;;;;15.07;10.85;;;;;;;17.85;100.00;63845.59;4818001;29;20221;-75
2023/09/09 06:21:16;;;;;;;12.07;10.68;;;;;;;17.96;100.00;63855.00;4817426;29;20222;-77
2023/09/09 06:23:42;;;;;;;13.32;10.95;;;;;;;18.07;100.00;63866.47;4815176;29;20210;-77
2023/09/09 06:26:10;;;;;;;11.25;10.00;;;;;;;17.99;100.00;63860.19;4815819;29;20278;-77
2023/09/09 06:28:36;;;;;;;13.07;10.55;;;;;;;18.15;100.00;63874.28;4818401;29;20203;-75
2023/09/09 06:31:03;;;;;;;12.23;9.57;;;;;;;18.30;100.00;63887.84;4816893;29;20225;-77
2023/09/09 06:33:32;;;;;;;13.98;10.27;;;;;;;18.39;100.00;63901.84;4816797;29;20245;-76
2023/09/09 06:35:58;;;;;;;14.95;10.57;;;;;;;18.49;100.00;63912.28;4815764;29;20233;-77
2023/09/09 06:38:26;;;;;;;12.35;9.95;;;;;;;18.49;100.00;63904.56;4805067;29;20210;-75
2023/09/09 06:40:53;;;;;;;14.23;10.38;;;;;;;18.57;100.00;63922.69;4807950;29;20401;-76
2023/09/09 06:43:21;;;;;;;13.50;9.85;;;;;;;18.71;100.00;63935.22;4806308;29;20210;-76
2023/09/09 06:45:49;;;;;;;12.20;10.10;;;;;;;18.93;98.63;63955.56;4814876;29;20611;-77
2023/09/09 06:48:17;;;;;;;12.18;9.52;;;;;;;19.14;96.71;63974.34;4818008;29;20214;-77
2023/09/09 06:50:46;;;;;;;11.20;8.98;;;;;;;19.33;93.93;63999.34;4812870;29;20609;-77
2023/09/09 06:53:14;;;;;;;11.18;8.60;;;;;;;19.49;91.77;64011.41;4812594;29;20209;-76
2023/09/09 06:55:42;;;;;;;12.75;9.10;;;;;;;19.64;92.20;64028.59;4818098;29;20259;-76
2023/09/09 06:58:09;;;;;;;10.50;9.20;;;;;;;19.59;94.55;64026.47;4817563;29;20210;-76
2023/09/09 07:00:36;;;;;;;13.05;9.95;;;;;;;19.62;91.54;64027.03;4809931;29;20235;-75
2023/09/09 07:03:05;;;;;;;12.13;9.20;;;;;;;19.64;90.47;64028.59;4810696;29;20522;-77
2023/09/09 07:05:32;;;;;;;10.68;9.18;;;;;;;19.71;89.03;64035.91;4803847;29;20237;-75
2023/09/09 07:08:00;;;;;;;13.77;8.63;;;;;;;19.87;85.95;64055.69;4811053;29;20209;-76
2023/09/09 07:10:27;;;;;;;13.63;8.57;;;;;;;19.85;85.15;64053.06;4821646;29;20253;-77
2023/09/09 07:12:55;;;;;;;9.82;7.82;;;;;;;19.95;82.06;64060.94;4825341;29;20248;-76
2023/09/09 07:15:22;;;;;;;10.63;8.52;;;;;;;20.09;80.90;64078.09;4825463;29;20276;-79
2023/09/09 07:17:48;;;;;;;8.60;7.70;;;;;;;20.16;80.68;64085.44;4822438;29;20227;-77
2023/09/09 07:20:16;;;;;;;12.93;8.32;;;;;;;20.24;81.57;64094.31;4817823;29;20271;-77
2023/09/09 07:22:43;;;;;;;8.48;7.57;;;;;;;20.39;78.35;64109.44;4820165;29;20218;-77
2023/09/09 07:25:11;;;;;;;8.70;7.60;;;;;;;20.61;75.32;64127.22;4821479;29;20225;-77
2023/09/09 07:27:38;;;;;;;9.05;5.85;;;;;;;20.71;72.57;64142.84;4819366;29;20251;-77
2023/09/09 07:30:07;;;;;;;9.93;7.20;;;;;;;20.87;69.51;64159.03;4819410;29;20225;-76
2023/09/09 07:32:34;;;;;;;8.55;6.53;;;;;;;20.93;68.29;64165.28;4815303;29;20206;-78
2023/09/09 07:35:03;;;;;;;4.88;4.47;;;;;;;21.06;61.31;64182.00;4809424;29;20439;-78
2023/09/09 07:37:31;;;;;;;5.30;3.33;;;;;;;21.13;51.65;64188.78;4811602;29;20262;-77
2023/09/09 07:39:58;;;;;;;5.28;3.03;;;;;;;21.22;49.77;64195.59;4817857;29;20222;-76
2023/09/09 07:42:27;;;;;;;2.85;2.65;;;;;;;21.18;46.88;64194.53;4806513;29;20210;-75
2023/09/09 07:44:54;;;;;;;5.63;3.85;;;;;;;21.20;51.57;64191.44;4815733;29;20237;-78
2023/09/09 07:47:21;;;;;;;4.95;3.38;;;;;;;21.25;51.28;64201.31;4811547;29;20229;-78
2023/09/09 07:49:48;;;;;;;4.85;3.50;;;;;;;21.34;50.18;64202.94;4817504;29;20233;-76
2023/09/09 07:52:15;;;;;;;3.42;3.22;;;;;;;21.41;46.66;64212.84;4817050;29;20247;-78
2023/09/09 07:54:42;;;;;;;5.57;2.88;;;;;;;21.41;46.54;64210.78;4814047;29;20282;-75
2023/09/09 07:57:09;;;;;;;3.22;2.60;;;;;;;21.51;47.10;64223.81;4800679;29;20209;-76
2023/09/09 07:59:39;;;;;;;3.95;3.45;;;;;;;21.38;47.89;64214.91;4808454;29;20210;-76
2023/09/09 08:02:07;;;;;;;6.65;3.80;;;;;;;21.47;48.96;64219.63;4798372;30;20233;-75
2023/09/09 08:04:34;;;;;;;5.78;3.33;;;;;;;21.62;47.93;64243.06;4802366;29;20209;-76
2023/09/09 08:07:01;;;;;;;3.47;3.28;;;;;;;21.61;47.79;64236.84;4816296;29;20250;-77
2023/09/09 08:09:28;;;;;;;3.70;3.50;;;;;;;21.87;49.72;64263.00;4816186;29;20217;-76
2023/09/09 08:11:55;;;;;;;3.65;3.30;;;;;;;22.03;48.07;64277.13;4816204;29;20516;-75
2023/09/09 08:14:22;;;;;;;3.42;3.22;;;;;;;22.12;48.91;64286.53;4812870;29;20248;-75
2023/09/09 08:16:51;;;;;;;4.13;3.10;;;;;;;22.32;48.98;64304.84;4816336;29;20213;-77
2023/09/09 08:19:18;;;;;;;2.88;2.75;;;;;;;22.44;47.32;64322.56;4816041;29;20263;-76
2023/09/09 08:21:45;;;;;;;7.78;2.95;;;;;;;22.38;45.98;64316.81;4813644;29;20205;-76
2023/09/09 08:24:11;;;;;;;3.10;2.80;;;;;;;22.55;46.24;64334.63;4814232;29;20217;-76
2023/09/09 08:26:38;;;;;;;3.22;2.53;;;;;;;22.66;41.10;64346.09;4816451;29;20247;-76
2023/09/09 08:29:05;;;;;;;2.58;2.30;;;;;;;22.58;40.77;64337.75;4804350;29;20460;-76
2023/09/09 08:31:32;;;;;;;3.75;2.15;;;;;;;22.54;40.00;64333.56;4804356;29;20312;-77
2023/09/09 08:34:01;;;;;;;131.82;81.93;;;;;;;22.60;41.33;64339.31;4816561;29;20236;-77
2023/09/09 08:36:28;;;;;;;3.75;3.55;;;;;;;22.73;41.40;64352.91;4810244;29;20256;-76
2023/09/09 08:38:57;;;;;;;15.43;8.15;;;;;;;22.67;41.41;64336.25;4799362;30;20566;-76
2023/09/09 08:41:35;;;;;;;7.82;2.97;;;;;;;22.74;41.25;64353.97;4809555;29;20225;-77
2023/09/09 08:44:09;;;;;;;3.38;3.08;;;;;;;22.92;42.31;64372.25;4806878;29;20210;-76
2023/09/09 08:46:36;;;;;;;4.88;3.70;;;;;;;23.00;42.38;64381.16;4817907;29;20245;-75
2023/09/09 08:49:05;;;;;;;2.53;2.33;;;;;;;23.17;41.41;64396.31;4816439;29;20280;-77
2023/09/09 08:51:45;;;;;;;6.93;5.07;;;;;;;23.40;41.84;64417.78;4815020;29;20234;-77
2023/09/09 08:54:14;;;;;;;4.75;3.38;;;;;;;23.63;42.37;64447.06;4812411;29;20225;-76
2023/09/09 08:56:42;;;;;;;3.78;3.40;;;;;;;23.77;40.50;64464.31;4800361;29;20237;-77
2023/09/09 08:59:10;;;;;;;3.80;3.17;;;;;;;23.83;39.73;64468.00;4809278;29;20228;-77
2023/09/09 09:01:43;;;;;;;6.07;2.58;;;;;;;23.87;38.89;64474.25;4818878;29;20566;-76
2023/09/09 09:04:13;;;;;;;2.40;2.20;;;;;;;23.96;39.51;64481.59;4820918;29;20279;-77
2023/09/09 09:06:42;;;;;;;2.95;2.75;;;;;;;24.09;38.72;64494.19;4803765;29;20463;-76
2023/09/09 09:09:09;;;;;;;2.92;2.83;;;;;;;24.13;39.02;64496.28;4816221;29;20548;-76
2023/09/09 09:11:37;;;;;;;3.30;2.78;;;;;;;24.14;38.28;64499.41;4816104;29;20240;-77
2023/09/09 09:14:08;;;;;;;2.50;2.40;;;;;;;24.16;38.06;64501.50;4821047;29;20214;-79
2023/09/09 09:16:43;;;;;;;2.83;2.58;;;;;;;24.05;38.29;64492.59;4818821;29;20245;-76
2023/09/09 09:19:20;;;;;;;2.97;2.78;;;;;;;23.90;37.82;64475.31;4819335;29;20239;-76
2023/09/09 09:21:47;;;;;;;2.72;2.53;;;;;;;23.96;37.59;64484.22;4812447;29;20213;-75
2023/09/09 09:24:16;;;;;;;2.65;2.50;;;;;;;23.95;38.43;64480.03;4808518;29;20214;-77
2023/09/09 09:26:42;;;;;;;3.88;3.28;;;;;;;23.91;38.34;64475.84;4808021;29;20265;-77
2023/09/09 09:29:09;;;;;;;3.53;3.13;;;;;;;24.09;38.76;64499.91;4807999;29;20205;-77
2023/09/09 09:31:37;;;;;;;3.10;2.90;;;;;;;24.07;38.95;64495.22;4819601;29;20237;-76
2023/09/09 09:34:03;;;;;;;3.97;2.95;;;;;;;24.02;38.32;64482.19;4814079;29;20210;-77
2023/09/09 09:36:32;;;;;;;3.10;2.80;;;;;;;24.07;38.61;64494.69;4817307;29;20305;-77
2023/09/09 09:39:00;;;;;;;2.92;2.80;;;;;;;24.13;37.61;64498.34;4819631;29;20209;-76
2023/09/09 09:41:26;;;;;;;2.80;2.60;;;;;;;24.21;38.26;64509.88;4804630;29;20242;-77
2023/09/09 09:43:53;;;;;;;2.85;2.65;;;;;;;24.17;35.20;64508.28;4803762;29;20216;-76
2023/09/09 09:46:22;;;;;;;2.42;2.25;;;;;;;24.24;35.56;64509.88;4801905;29;20234;-76
2023/09/09 09:49:14;;;;;;;2.90;2.60;;;;;;;24.20;36.03;64508.28;4814565;29;20281;-78
2023/09/09 09:51:46;;;;;;;2.45;2.33;;;;;;;24.23;36.54;64506.25;4816718;29;20225;-76
2023/09/09 09:54:18;;;;;;;10.65;3.35;;;;;;;24.38;36.05;64527.66;4813820;29;20258;-77
2023/09/09 09:56:56;;;;;;;2.85;2.67;;;;;;;24.46;37.06;64538.13;4819161;29;20245;-77
2023/09/09 09:59:23;;;;;;;2.88;2.67;;;;;;;24.55;36.48;64545.47;4819377;29;20213;-77
2023/09/09 10:01:51;;;;;;;3.28;2.50;;;;;;;24.55;36.06;64544.94;4815917;29;20233;-75
2023/09/09 10:04:23;;;;;;;2.80;2.60;;;;;;;24.40;36.69;64527.16;4819681;29;20364;-79
2023/09/09 10:06:55;;;;;;;3.17;2.47;;;;;;;24.35;36.13;64524.50;4819400;29;20441;-75
2023/09/09 10:09:32;;;;;;;3.42;3.13;;;;;;;24.18;37.42;64503.59;4818755;29;20221;-77
2023/09/09 10:12:14;;;;;;;2.83;2.00;;;;;;;24.39;34.74;64525.56;4817189;29;20213;-77
2023/09/09 10:14:42;;;;;;;2.05;1.88;;;;;;;24.41;34.09;64522.47;4818773;29;20225;-76
2023/09/09 10:17:12;;;;;;;2.47;2.17;;;;;;;24.52;35.55;64539.72;4817348;29;20220;-77
2023/09/09 10:19:40;;;;;;;2.85;2.53;;;;;;;24.66;34.20;64553.88;4801169;29;20263;-78
2023/09/09 10:22:10;;;;;;;2.85;2.00;;;;;;;24.64;33.15;64551.75;4818913;29;20213;-76
2023/09/09 10:24:39;;;;;;;2.15;2.05;;;;;;;24.70;33.60;64558.06;4808452;29;20224;-77
2023/09/09 10:27:08;;;;;;;3.08;2.88;;;;;;;24.82;33.64;64573.22;4802596;29;20236;-75
2023/09/09 10:29:38;;;;;;;2.58;2.38;;;;;;;24.92;34.44;64584.22;4811152;29;20217;-76
2023/09/09 10:32:06;;;;;;;2.08;1.98;;;;;;;25.14;33.57;64606.75;4815796;29;20213;-77
2023/09/09 10:34:35;;;;;;;2.45;2.30;;;;;;;25.34;32.32;64627.69;4818944;29;20218;-77
2023/09/09 10:37:07;;;;;;;2.60;1.95;;;;;;;25.15;31.70;64605.19;4818959;29;20305;-76
2023/09/09 10:39:44;;;;;;;2.40;2.20;;;;;;;24.94;32.23;64585.78;4818832;29;20205;-77
2023/09/09 10:42:15;;;;;;;4.30;2.40;;;;;;;25.06;31.63;64598.91;4819560;29;20294;-78
2023/09/09 10:44:43;;;;;;;2.00;1.90;;;;;;;25.05;31.51;64595.25;4818850;29;20240;-74
2023/09/09 10:47:10;;;;;;;2.78;1.92;;;;;;;24.88;30.98;64577.44;4810580;29;20201;-77
2023/09/09 10:49:37;;;;;;;2.80;2.60;;;;;;;24.91;31.43;64583.19;4808367;29;20248;-77
2023/09/09 10:52:04;;;;;;;2.03;1.92;;;;;;;25.02;33.99;64589.47;4801301;30;20273;-76
2023/09/09 10:54:34;;;;;;;1.90;1.80;;;;;;;25.19;33.57;64609.38;4800763;30;20210;-76
2023/09/09 10:57:03;;;;;;;2.80;1.98;;;;;;;25.33;32.35;64626.66;4809186;29;20240;-76
2023/09/09 10:59:31;;;;;;;2.30;2.10;;;;;;;25.45;30.71;64630.91;4813506;29;20254;-77
2023/09/09 11:02:21;;;;;;;3.30;2.08;;;;;;;25.54;27.46;64645.56;4800743;30;20270;-77
2023/09/09 11:04:59;;;;;;;2.40;2.17;;;;;;;25.52;26.95;64646.59;4808211;29;20228;-77
2023/09/09 11:07:39;;;;;;;1.88;1.77;;;;;;;25.41;25.27;64635.06;4805709;29;20712;-76
2023/09/09 11:10:07;;;;;;;1.77;1.23;;;;;;;25.35;26.24;64625.63;4799785;29;20317;-76
2023/09/09 11:12:37;;;;;;;1.42;1.33;;;;;;;25.35;26.84;64628.75;4800246;29;20285;-77
2023/09/09 11:15:08;;;;;;;1.35;1.25;;;;;;;25.51;29.01;64640.31;4806263;29;20233;-77
2023/09/09 11:17:42;;;;;;;1.88;1.65;;;;;;;25.70;28.55;64665.44;4818576;29;20272;-76
2023/09/09 11:20:12;;;;;;;1.90;1.80;;;;;;;25.83;29.98;64670.72;4812582;29;20237;-77
2023/09/09 11:22:39;;;;;;;1.70;1.60;;;;;;;25.89;28.09;64679.59;4811983;29;20258;-77
2023/09/09 11:25:07;;;;;;;1.55;1.45;;;;;;;25.94;28.08;64684.84;4815802;29;20233;-77
2023/09/09 11:27:36;;;;;;;2.90;1.92;;;;;;;26.11;29.78;64702.72;4812014;29;20224;-77